createdAt,value
2023-01-19T00:03:44.547Z,6.38
2023-01-19T00:08:51.279Z,6.47
2023-01-19T00:13:54.997Z,5.72
2023-01-19T00:18:58.690Z,6.22
2023-01-19T00:24:03.704Z,6.38
2023-01-19T00:29:07.991Z,6.50
2023-01-19T00:34:11.669Z,5.70
2023-01-19T00:39:16.919Z,6.10
2023-01-19T00:44:20.592Z,5.85
2023-01-19T00:49:24.273Z,6.05
2023-01-19T00:54:29.305Z,5.47
2023-01-19T00:59:33.237Z,5.97
2023-01-19T01:04:37.012Z,4.97
2023-01-19T01:09:42.303Z,5.63
2023-01-19T01:14:46.016Z,5.07
2023-01-19T01:19:49.821Z,4.78
2023-01-19T01:24:54.884Z,4.32
2023-01-19T01:29:58.535Z,4.95
2023-01-19T01:35:02.258Z,4.18
2023-01-19T01:40:09.088Z,3.70
2023-01-19T01:45:35.003Z,3.83
2023-01-19T01:51:02.846Z,4.63
2023-01-19T01:56:13.826Z,3.15
2023-01-19T02:01:34.990Z,3.38
2023-01-19T02:06:56.824Z,3.40
2023-01-19T02:12:19.470Z,3.78
2023-01-19T02:17:23.363Z,4.05
2023-01-19T02:22:36.077Z,4.25
2023-01-19T02:27:41.152Z,4.40
2023-01-19T02:32:45.180Z,3.42
2023-01-19T02:37:49.435Z,3.88
2023-01-19T02:42:58.710Z,3.50
2023-01-19T02:48:02.926Z,3.67
2023-01-19T02:53:22.339Z,3.40
2023-01-19T02:58:34.730Z,3.50
2023-01-19T03:03:48.766Z,3.45
2023-01-19T03:09:02.137Z,3.40
2023-01-19T03:14:12.472Z,2.95
2023-01-19T03:19:22.471Z,2.65
2023-01-19T03:24:29.562Z,2.63
2023-01-19T03:29:36.132Z,3.03
2023-01-19T03:34:41.925Z,2.63
2023-01-19T03:39:45.598Z,2.53
2023-01-19T03:44:53.631Z,2.20
2023-01-19T03:49:58.985Z,2.15
2023-01-19T03:55:04.900Z,1.83
2023-01-19T04:00:11.902Z,1.30
2023-01-19T04:05:19.207Z,1.25
2023-01-19T04:10:23.321Z,0.68
2023-01-19T04:15:29.150Z,0.40
2023-01-19T04:20:33.905Z,0.55
2023-01-19T04:25:38.968Z,0.40
2023-01-19T04:30:44.123Z,0.80
2023-01-19T04:35:48.862Z,0.60
2023-01-19T04:40:53.360Z,1.00
2023-01-19T04:45:58.754Z,1.45
2023-01-19T04:51:02.389Z,1.25
2023-01-19T04:56:06.689Z,1.20
2023-01-19T05:01:11.776Z,1.42
2023-01-19T05:06:15.487Z,1.88
2023-01-19T05:11:19.262Z,1.10
2023-01-19T05:16:24.332Z,1.63
2023-01-19T05:21:28.443Z,1.80
2023-01-19T05:26:32.268Z,1.98
2023-01-19T05:31:38.318Z,1.63
2023-01-19T05:36:42.060Z,1.20
2023-01-19T05:41:45.903Z,1.15
2023-01-19T05:46:50.986Z,0.80
2023-01-19T05:51:54.691Z,0.85
2023-01-19T05:56:58.424Z,1.67
2023-01-19T06:02:03.599Z,1.05
2023-01-19T06:07:07.698Z,1.38
2023-01-19T06:12:11.364Z,1.60
2023-01-19T06:17:16.744Z,2.50
2023-01-19T06:22:20.493Z,3.85
2023-01-19T06:27:24.274Z,4.53
2023-01-19T06:32:30.987Z,4.60
2023-01-19T06:37:35.504Z,5.75
2023-01-19T06:42:39.212Z,5.68
2023-01-19T06:47:44.297Z,6.65
2023-01-19T06:52:51.139Z,6.93
2023-01-19T06:57:58.332Z,9.25
2023-01-19T07:03:03.819Z,8.10
2023-01-19T07:08:07.889Z,9.95
2023-01-19T07:13:11.958Z,9.75
2023-01-19T07:18:17.170Z,9.65
2023-01-19T07:23:20.845Z,9.20
2023-01-19T07:28:24.572Z,9.45
2023-01-19T07:33:29.921Z,8.57
2023-01-19T07:38:33.640Z,8.32
2023-01-19T07:43:37.417Z,8.43
2023-01-19T07:48:44.440Z,8.88
2023-01-19T07:53:48.131Z,7.70
2023-01-19T07:58:52.560Z,7.75
2023-01-19T08:03:57.649Z,8.32
2023-01-19T08:09:01.518Z,8.35
2023-01-19T08:14:07.866Z,7.90
2023-01-19T08:19:13.477Z,9.13
2023-01-19T08:24:21.433Z,8.35
2023-01-19T08:29:25.281Z,8.57
2023-01-19T08:34:32.060Z,9.80
2023-01-19T08:39:35.804Z,11.80
2023-01-19T08:44:46.787Z,11.77
2023-01-19T08:50:02.019Z,10.95
2023-01-19T08:55:07.205Z,12.18
2023-01-19T09:00:12.199Z,11.48
2023-01-19T09:05:17.685Z,10.68
2023-01-19T09:10:21.683Z,10.05
2023-01-19T09:15:25.481Z,10.70
2023-01-19T09:20:31.289Z,9.30
2023-01-19T09:25:35.189Z,9.68
2023-01-19T09:30:39.951Z,9.20
2023-01-19T09:35:47.094Z,8.13
2023-01-19T09:40:53.168Z,8.18
2023-01-19T09:45:59.506Z,8.90
2023-01-19T09:51:08.793Z,9.60
2023-01-19T09:56:15.223Z,8.60
2023-01-19T10:01:35.322Z,8.63
2023-01-19T10:06:40.932Z,9.38
2023-01-19T10:11:53.470Z,8.93
2023-01-19T10:17:09.046Z,8.70
2023-01-19T10:22:21.956Z,8.63
2023-01-19T10:27:29.397Z,9.25
2023-01-19T10:32:36.238Z,9.38
2023-01-19T10:37:42.181Z,8.30
2023-01-19T10:42:46.079Z,8.15
2023-01-19T10:47:52.813Z,8.63
2023-01-19T10:53:00.291Z,9.43
2023-01-19T10:58:04.924Z,8.30
2023-01-19T11:03:24.654Z,8.57
2023-01-19T11:08:31.847Z,9.18
2023-01-19T11:13:36.936Z,7.88
2023-01-19T11:18:42.264Z,8.10
2023-01-19T11:23:51.233Z,9.00
2023-01-19T11:28:57.190Z,7.60
2023-01-19T11:34:04.863Z,8.52
2023-01-19T11:39:24.705Z,8.45
2023-01-19T11:44:32.041Z,7.50
2023-01-19T11:49:45.076Z,8.98
2023-01-19T11:54:57.336Z,7.40
2023-01-19T12:00:05.150Z,6.80
2023-01-19T12:05:20.349Z,7.57
2023-01-19T12:10:29.182Z,7.97
2023-01-19T12:15:38.163Z,6.13
2023-01-19T12:20:45.764Z,6.18
2023-01-19T12:26:07.486Z,6.65
2023-01-19T12:31:14.899Z,6.25
2023-01-19T12:36:37.149Z,6.15
2023-01-19T12:41:43.670Z,6.50
2023-01-19T12:46:49.569Z,6.18
2023-01-19T12:51:56.625Z,5.80
2023-01-19T13:02:38.674Z,7.05
2023-01-19T13:08:20.795Z,7.38
2023-01-19T13:13:27.180Z,7.63
2023-01-19T13:18:35.131Z,8.23
2023-01-19T13:23:55.344Z,7.75
2023-01-19T13:29:08.643Z,9.40
2023-01-19T13:34:15.337Z,9.30
2023-01-19T13:39:25.853Z,8.10
2023-01-19T13:44:36.239Z,9.30
2023-01-19T13:49:43.878Z,9.38
2023-01-19T13:54:53.230Z,9.85
2023-01-19T14:00:12.852Z,9.90
2023-01-19T14:05:17.760Z,10.13
2023-01-19T14:10:21.813Z,9.88
2023-01-19T14:15:27.293Z,10.10
2023-01-19T14:20:32.880Z,9.95
2023-01-19T14:25:38.978Z,10.75
2023-01-19T14:30:54.735Z,11.40
2023-01-19T14:36:09.045Z,12.65
2023-01-19T14:41:13.220Z,13.13
2023-01-19T14:46:23.010Z,12.13
2023-01-19T14:51:29.026Z,11.20
2023-01-19T14:56:35.742Z,11.50
2023-01-19T15:01:41.098Z,11.25
2023-01-19T15:06:45.943Z,11.82
2023-01-19T15:11:52.029Z,10.77
2023-01-19T15:16:59.186Z,9.83
2023-01-19T15:27:06.516Z,10.80
2023-01-19T15:32:15.231Z,11.13
2023-01-19T15:37:19.021Z,11.13
2023-01-19T15:42:22.758Z,11.70
2023-01-19T15:47:27.865Z,11.00
2023-01-19T15:52:31.570Z,11.15
2023-01-19T15:57:35.624Z,11.68
2023-01-19T16:02:40.821Z,10.90
2023-01-19T16:07:44.599Z,11.10
2023-01-19T16:12:48.993Z,9.45
2023-01-19T16:17:54.040Z,9.98
2023-01-19T16:23:09.676Z,10.65
2023-01-19T16:28:17.980Z,10.27
2023-01-19T16:33:23.146Z,10.75
2023-01-19T16:38:27.167Z,9.85
2023-01-19T16:43:31.069Z,10.75
2023-01-19T16:48:36.278Z,11.27
2023-01-19T16:53:40.138Z,12.10
2023-01-19T16:58:44.189Z,10.52
2023-01-19T17:03:49.628Z,11.85
2023-01-19T17:08:54.462Z,11.20
2023-01-19T17:14:00.516Z,12.07
2023-01-19T17:19:07.507Z,11.43
2023-01-19T17:29:14.825Z,11.82
2023-01-19T17:34:20.007Z,12.55
2023-01-19T17:39:23.825Z,12.82
2023-01-19T17:44:27.650Z,12.45
2023-01-19T17:49:32.805Z,12.07
2023-01-19T17:54:36.598Z,12.57
2023-01-19T17:59:55.360Z,11.25
2023-01-19T18:05:02.505Z,11.18
2023-01-19T18:10:07.833Z,12.63
2023-01-19T18:15:12.577Z,12.48
2023-01-19T18:20:18.113Z,11.60
2023-01-19T18:25:21.925Z,11.32
2023-01-19T18:30:25.693Z,12.50
2023-01-19T18:35:30.888Z,11.20
2023-01-19T18:40:34.701Z,11.55
2023-01-19T18:45:39.899Z,11.25
2023-01-19T18:50:45.034Z,11.90
2023-01-19T18:55:52.732Z,10.95
2023-01-19T19:00:56.665Z,11.57
2023-01-19T19:06:05.138Z,11.88
2023-01-19T19:11:09.585Z,12.43
2023-01-19T19:16:14.730Z,11.98
2023-01-19T19:21:24.021Z,12.13
2023-01-19T19:26:29.346Z,12.40
2023-01-19T19:31:33.532Z,12.45
2023-01-19T19:36:38.854Z,11.93
2023-01-19T19:41:42.837Z,12.68
2023-01-19T19:46:46.666Z,12.02
2023-01-19T19:51:51.951Z,12.10
2023-01-19T19:56:55.831Z,10.50
2023-01-19T20:01:59.574Z,12.40
2023-01-19T20:07:04.754Z,11.95
2023-01-19T20:12:09.776Z,11.55
2023-01-19T20:17:13.591Z,11.35
2023-01-19T20:22:18.687Z,12.15
2023-01-19T20:27:22.518Z,11.07
2023-01-19T20:32:26.437Z,12.25
2023-01-19T20:37:31.707Z,12.75
2023-01-19T20:42:36.866Z,14.05
2023-01-19T20:47:40.627Z,12.73
2023-01-19T20:52:45.764Z,12.40
2023-01-19T20:57:49.535Z,13.65
2023-01-19T21:02:53.406Z,12.40
2023-01-19T21:07:58.488Z,14.23
2023-01-19T21:13:02.327Z,14.20
2023-01-19T21:18:06.291Z,13.23
2023-01-19T21:23:11.805Z,12.73
2023-01-19T21:28:16.063Z,12.45
2023-01-19T21:33:20.223Z,14.00
2023-01-19T21:38:27.284Z,13.00
2023-01-19T21:43:31.598Z,12.52
2023-01-19T21:48:35.383Z,13.65
2023-01-19T21:53:40.803Z,14.05
2023-01-19T21:58:46.125Z,13.20
2023-01-19T22:03:50.130Z,14.18
2023-01-19T22:08:55.858Z,15.07
2023-01-19T22:14:00.964Z,14.20
2023-01-19T22:19:07.548Z,15.55
2023-01-19T22:24:12.937Z,13.77
2023-01-19T22:29:16.792Z,14.65
2023-01-19T22:34:20.627Z,13.50
2023-01-19T22:39:25.708Z,13.23
2023-01-19T22:44:29.502Z,12.80
2023-01-19T22:49:33.449Z,10.15
2023-01-19T22:54:38.804Z,10.18
2023-01-19T22:59:43.707Z,9.77
2023-01-19T23:04:47.442Z,7.13
2023-01-19T23:09:52.649Z,7.50
2023-01-19T23:14:56.447Z,7.45
2023-01-19T23:20:00.465Z,7.68
2023-01-19T23:25:06.122Z,7.05
2023-01-19T23:30:11.138Z,8.43
2023-01-19T23:35:15.289Z,9.32
2023-01-19T23:40:21.236Z,10.50
2023-01-19T23:45:24.992Z,10.88
2023-01-19T23:50:28.794Z,11.25
2023-01-19T23:55:33.955Z,11.27
